Time;durP1;ratioP1;P1;durP2;ratioP2;P2;SDS_P1;SDS_P2;PMS_P1;PMS_P2;Temp;Humidity;BMP_temperature;BMP_pressure;BME280_temperature;BME280_humidity;BME280_pressure;Samples;Min_cycle;Max_cycle;Signal;HPM_P1;HPM_P2
2023/11/05 00:01:27;;;;;;;1.00;0.50;;;;;;;8.31;100.00;153494.72;4977837;28;20804;-86
2023/11/05 00:03:57;;;;;;;0.90;0.50;;;;;;;8.30;100.00;153492.16;4994026;28;20474;-86
2023/11/05 00:06:24;;;;;;;1.07;0.40;;;;;;;8.31;100.00;153494.72;4977694;28;20443;-86
2023/11/05 00:08:53;;;;;;;0.90;0.50;;;;;;;8.27;100.00;153483.09;4962363;28;20455;-86
2023/11/05 00:11:20;;;;;;;0.80;0.40;;;;;;;8.28;100.00;153487.00;4977820;28;20430;-86
2023/11/05 00:13:49;;;;;;;1.13;0.40;;;;;;;8.28;100.00;153487.00;4978538;28;20478;-85
2023/11/05 00:16:19;;;;;;;1.47;0.67;;;;;;;8.27;100.00;153484.41;4978118;28;20454;-85
2023/11/05 00:18:48;;;;;;;1.20;0.53;;;;;;;8.27;100.00;153484.41;4974623;28;20566;-85
2023/11/05 00:21:15;;;;;;;0.80;0.40;;;;;;;8.25;100.00;153479.19;4958460;29;20446;-86
2023/11/05 00:23:44;;;;;;;0.90;0.50;;;;;;;8.27;100.00;153483.09;4959086;29;20451;-86
2023/11/05 00:26:12;;;;;;;0.90;0.30;;;;;;;8.26;100.00;153481.75;4942915;29;20455;-85
2023/11/05 00:28:42;;;;;;;1.57;0.70;;;;;;;8.25;100.00;153477.88;4942202;29;20491;-85
2023/11/05 00:31:11;;;;;;;1.00;0.50;;;;;;;8.23;100.00;153474.03;4943038;29;20506;-86
2023/11/05 00:33:39;;;;;;;1.30;0.40;;;;;;;8.23;100.00;153474.03;4959187;29;20455;-86
2023/11/05 00:36:10;;;;;;;1.00;0.40;;;;;;;8.20;100.00;153466.28;4958814;29;20451;-86
2023/11/05 00:38:38;;;;;;;2.50;0.50;;;;;;;8.20;100.00;153466.28;4943755;29;20499;-86
2023/11/05 00:41:07;;;;;;;0.90;0.57;;;;;;;8.19;100.00;153463.66;4944085;29;20470;-86
2023/11/05 00:43:37;;;;;;;1.00;0.50;;;;;;;8.15;100.00;153453.34;4944414;29;20448;-87
2023/11/05 00:46:05;;;;;;;0.80;0.40;;;;;;;8.13;100.00;153446.88;4944289;29;20448;-87
2023/11/05 00:48:33;;;;;;;1.30;0.40;;;;;;;8.13;100.00;153446.88;4972670;29;20448;-86
2023/11/05 00:51:02;;;;;;;0.67;0.27;;;;;;;8.14;100.00;153450.75;4940652;29;20432;-86
2023/11/05 00:53:34;;;;;;;1.57;0.83;;;;;;;8.13;100.00;153446.88;4956380;29;20447;-87
2023/11/05 00:56:02;;;;;;;0.80;0.50;;;;;;;8.10;100.00;153439.13;4956924;29;20487;-86
2023/11/05 00:58:30;;;;;;;0.90;0.30;;;;;;;8.09;100.00;153436.53;4940892;29;20440;-86
2023/11/05 01:00:57;;;;;;;0.80;0.40;;;;;;;8.09;100.00;153436.53;4956499;29;20443;-87
2023/11/05 01:03:26;;;;;;;0.80;0.40;;;;;;;8.11;100.00;153441.69;4956402;29;20922;-86
2023/11/05 01:05:56;;;;;;;2.13;0.50;;;;;;;8.12;100.00;153444.28;4956721;29;20460;-86
2023/11/05 01:08:25;;;;;;;0.70;0.30;;;;;;;8.10;100.00;153440.38;4956582;29;20455;-86
2023/11/05 01:10:54;;;;;;;0.80;0.40;;;;;;;8.10;100.00;153439.13;4972742;28;20471;-86
2023/11/05 01:13:22;;;;;;;0.80;0.30;;;;;;;8.12;100.00;153445.59;4972286;29;20534;-86
2023/11/05 01:15:51;;;;;;;1.47;0.50;;;;;;;8.12;100.00;153444.28;4956312;29;20470;-86
2023/11/05 01:18:21;;;;;;;1.00;0.50;;;;;;;8.14;100.00;153449.44;4956304;29;20563;-86
2023/11/05 01:20:49;;;;;;;0.87;0.30;;;;;;;8.12;100.00;153444.28;4956797;29;20491;-86
2023/11/05 01:23:21;;;;;;;1.00;0.37;;;;;;;8.13;100.00;153446.88;4956940;29;20482;-86
2023/11/05 01:25:49;;;;;;;1.60;0.47;;;;;;;8.14;100.00;153450.75;4957085;29;20443;-86
2023/11/05 01:28:19;;;;;;;0.80;0.40;;;;;;;8.18;100.00;153461.06;4956173;29;20454;-87
2023/11/05 01:30:48;;;;;;;0.83;0.37;;;;;;;8.18;100.00;153461.06;4956395;29;20448;-87
2023/11/05 01:33:16;;;;;;;0.80;0.30;;;;;;;8.16;100.00;153454.59;4972401;28;20470;-87
2023/11/05 01:35:44;;;;;;;1.00;0.40;;;;;;;8.22;100.00;153470.13;4956208;29;20471;-86
2023/11/05 01:38:12;;;;;;;2.00;0.60;;;;;;;8.28;100.00;153485.69;4940116;29;20498;-88
2023/11/05 01:40:40;;;;;;;0.77;0.37;;;;;;;8.29;100.00;153489.56;4940068;29;20436;-86
2023/11/05 01:43:08;;;;;;;1.30;0.50;;;;;;;8.28;100.00;153487.00;4956459;29;20476;-86
2023/11/05 01:45:38;;;;;;;0.83;0.40;;;;;;;8.24;100.00;153476.59;4956194;29;20799;-86
2023/11/05 01:48:06;;;;;;;0.80;0.40;;;;;;;8.22;100.00;153471.44;4955368;29;20475;-86
2023/11/05 01:50:37;;;;;;;1.47;0.40;;;;;;;8.18;100.00;153461.06;4956746;29;20447;-86
2023/11/05 01:53:04;;;;;;;1.00;0.50;;;;;;;8.16;100.00;153455.91;4956150;29;20495;-86
2023/11/05 01:55:34;;;;;;;1.37;0.47;;;;;;;8.15;100.00;153452.03;4940304;29;20459;-86
2023/11/05 01:58:03;;;;;;;1.27;0.60;;;;;;;8.14;100.00;153450.75;4955800;29;20490;-85
2023/11/05 02:00:32;;;;;;;1.00;0.30;;;;;;;8.18;100.00;153461.06;4941163;29;20472;-86
2023/11/05 02:03:01;;;;;;;0.80;0.37;;;;;;;8.20;100.00;153466.28;4940199;29;20475;-86
2023/11/05 02:05:30;;;;;;;0.77;0.37;;;;;;;8.22;100.00;153470.13;4956462;29;20479;-86
2023/11/05 02:07:59;;;;;;;1.20;0.50;;;;;;;8.19;100.00;153463.66;4940652;29;20474;-85
2023/11/05 02:10:47;;;;;;;1.33;0.70;;;;;;;8.20;100.00;153466.28;4960861;29;20424;-87
2023/11/05 02:13:15;;;;;;;1.43;0.43;;;;;;;8.22;100.00;153470.13;4940874;29;20699;-86
2023/11/05 02:15:45;;;;;;;1.10;0.50;;;;;;;8.25;100.00;153477.88;4941205;29;20471;-87
2023/11/05 02:18:16;;;;;;;1.13;0.40;;;;;;;8.24;100.00;153476.59;4956485;29;20521;-86
2023/11/05 02:20:45;;;;;;;0.80;0.37;;;;;;;8.21;100.00;153468.81;4956718;29;20475;-87
2023/11/05 02:23:19;;;;;;;1.00;0.37;;;;;;;8.21;100.00;153468.81;4956786;29;20485;-87
2023/11/05 02:25:47;;;;;;;1.07;0.50;;;;;;;8.30;100.00;153492.16;4957566;29;20527;-86
2023/11/05 02:28:17;;;;;;;0.90;0.40;;;;;;;8.36;100.00;153507.69;4956873;29;20527;-86
2023/11/05 02:30:45;;;;;;;2.70;0.60;;;;;;;8.40;100.00;153518.00;4941035;29;20467;-86
2023/11/05 02:33:13;;;;;;;0.80;0.30;;;;;;;8.40;100.00;153518.00;4941044;29;20454;-85
2023/11/05 02:35:41;;;;;;;1.80;0.53;;;;;;;8.38;100.00;153512.84;4956930;29;20515;-87
2023/11/05 02:38:09;;;;;;;2.00;0.80;;;;;;;8.38;100.00;153512.84;4957053;29;20458;-87
2023/11/05 02:40:40;;;;;;;1.97;0.30;;;;;;;8.48;100.00;153538.69;4941046;29;20490;-87
2023/11/05 02:43:08;;;;;;;1.07;0.40;;;;;;;8.58;100.00;153564.53;4957059;29;20483;-86
2023/11/05 02:45:37;;;;;;;1.93;0.50;;;;;;;8.62;100.00;153572.28;4941373;29;20745;-87
2023/11/05 02:48:06;;;;;;;1.17;0.40;;;;;;;8.68;100.00;153587.81;4957292;29;20463;-87
2023/11/05 02:50:36;;;;;;;1.70;0.50;;;;;;;8.72;100.00;153598.13;4958419;29;20477;-86
2023/11/05 02:53:04;;;;;;;1.80;0.47;;;;;;;8.72;100.00;153598.13;4940892;29;20441;-86
2023/11/05 02:55:32;;;;;;;2.80;0.40;;;;;;;8.71;100.00;153596.81;4940314;29;20466;-87
2023/11/05 02:58:01;;;;;;;1.00;0.50;;;;;;;8.80;100.00;153618.81;4971708;28;20467;-87
2023/11/05 03:00:37;;;;;;;0.90;0.40;;;;;;;8.84;99.18;153630.44;4959573;29;20518;-87
2023/11/05 03:03:11;;;;;;;0.80;0.30;;;;;;;8.88;98.86;153640.81;4943770;29;20483;-87
2023/11/05 03:05:43;;;;;;;2.03;0.50;;;;;;;8.88;99.07;153639.50;4959764;29;20447;-86
2023/11/05 03:08:12;;;;;;;3.10;0.50;;;;;;;8.93;98.43;153652.44;4942955;29;20538;-87
2023/11/05 03:10:41;;;;;;;1.67;0.60;;;;;;;8.91;99.01;153647.28;4959181;29;20534;-88
2023/11/05 03:13:11;;;;;;;0.90;0.50;;;;;;;8.88;99.15;153640.81;4959433;29;20463;-87
2023/11/05 03:15:40;;;;;;;1.10;0.50;;;;;;;8.89;98.44;153642.13;4943583;29;20788;-86
2023/11/05 03:18:11;;;;;;;1.63;0.50;;;;;;;8.93;97.98;153652.44;4958945;29;20471;-86
2023/11/05 03:20:40;;;;;;;1.33;0.47;;;;;;;8.96;97.79;153660.19;4943557;29;20463;-86
2023/11/05 03:23:08;;;;;;;0.77;0.27;;;;;;;8.99;97.21;153667.97;4959419;29;20471;-87
2023/11/05 03:25:47;;;;;;;1.77;0.43;;;;;;;9.00;96.96;153670.56;4961109;29;20493;-87
2023/11/05 03:28:18;;;;;;;1.17;0.50;;;;;;;9.05;95.87;153684.75;4976869;29;20447;-88
2023/11/05 03:30:48;;;;;;;2.03;0.53;;;;;;;9.06;96.51;153687.34;4927662;29;20486;-88
2023/11/05 03:33:16;;;;;;;0.97;0.43;;;;;;;9.01;96.92;153674.44;4959408;29;20465;-87
2023/11/05 03:35:45;;;;;;;2.17;0.53;;;;;;;9.03;96.49;153679.59;4942962;29;20475;-87
2023/11/05 03:38:13;;;;;;;2.40;0.70;;;;;;;9.09;95.86;153695.13;4943234;29;20460;-87
2023/11/05 03:40:41;;;;;;;2.77;0.70;;;;;;;9.10;96.25;153696.41;4958918;29;20455;-88
2023/11/05 03:43:09;;;;;;;2.00;0.47;;;;;;;9.06;95.96;153687.34;4958458;29;20495;-87
2023/11/05 03:45:39;;;;;;;1.77;0.40;;;;;;;9.06;95.95;153686.06;4942821;29;20432;-87
2023/11/05 03:48:07;;;;;;;1.03;0.40;;;;;;;9.07;96.91;153688.66;4942644;29;20550;-87
2023/11/05 03:50:37;;;;;;;1.60;0.80;;;;;;;8.99;98.01;153667.97;4958916;29;20443;-87
2023/11/05 03:53:08;;;;;;;1.27;0.50;;;;;;;8.96;98.06;153660.19;4958621;29;20443;-87
2023/11/05 03:55:36;;;;;;;3.10;0.90;;;;;;;8.96;97.04;153660.19;4928002;29;20435;-87
2023/11/05 03:58:04;;;;;;;0.97;0.30;;;;;;;8.95;97.65;153658.91;4942954;29;20447;-87
2023/11/05 04:00:36;;;;;;;2.43;0.83;;;;;;;8.99;96.74;153669.25;4958665;29;20452;-87
2023/11/05 04:03:08;;;;;;;1.53;0.50;;;;;;;9.01;96.22;153673.13;4958687;29;20467;-87
2023/11/05 04:05:36;;;;;;;2.60;0.77;;;;;;;9.02;96.08;153677.03;4958438;29;20459;-87
2023/11/05 04:08:04;;;;;;;1.67;0.60;;;;;;;9.00;96.41;153671.81;4958629;29;20459;-87
2023/11/05 04:10:32;;;;;;;0.70;0.30;;;;;;;8.98;96.67;153665.34;4958500;29;20424;-87
2023/11/05 04:13:04;;;;;;;0.97;0.43;;;;;;;8.99;96.26;153667.97;4975468;29;20442;-88
2023/11/05 04:15:32;;;;;;;2.67;0.70;;;;;;;9.00;96.34;153670.56;4960529;29;20436;-87
2023/11/05 04:18:04;;;;;;;1.87;0.50;;;;;;;8.99;96.67;153667.97;4979952;29;20482;-87
2023/11/05 04:20:34;;;;;;;2.13;0.50;;;;;;;9.00;96.90;153671.81;4947740;29;20448;-87
2023/11/05 04:23:04;;;;;;;2.73;0.60;;;;;;;8.96;97.60;153661.50;4963326;29;20542;-87
2023/11/05 04:25:35;;;;;;;2.13;0.40;;;;;;;8.92;97.51;153649.88;4980283;29;20411;-86
2023/11/05 04:28:04;;;;;;;1.13;0.60;;;;;;;8.90;98.29;153645.97;4963428;29;20455;-87
2023/11/05 04:30:32;;;;;;;1.93;0.50;;;;;;;8.89;98.41;153643.41;4963565;29;20423;-87
2023/11/05 04:33:02;;;;;;;1.30;0.50;;;;;;;8.90;97.71;153644.66;4947447;29;20419;-87
2023/11/05 04:35:31;;;;;;;3.50;0.60;;;;;;;8.96;97.73;153660.19;4947842;29;20440;-87
2023/11/05 04:38:03;;;;;;;1.20;0.60;;;;;;;8.95;98.05;153657.59;4947998;29;20442;-87
2023/11/05 04:40:32;;;;;;;2.40;0.93;;;;;;;8.96;97.59;153661.50;4962578;29;20467;-87
2023/11/05 04:43:01;;;;;;;1.03;0.40;;;;;;;8.91;98.57;153647.28;4963033;28;20621;-87
2023/11/05 04:45:30;;;;;;;1.47;0.50;;;;;;;8.88;98.62;153640.81;4931883;29;20423;-87
2023/11/05 04:48:12;;;;;;;1.70;0.60;;;;;;;8.90;98.13;153644.66;4979717;29;20431;-86
2023/11/05 04:50:40;;;;;;;1.13;0.47;;;;;;;8.94;98.44;153656.34;4963530;29;20415;-86
2023/11/05 04:53:11;;;;;;;1.60;0.60;;;;;;;8.99;97.41;153669.25;4947395;29;20507;-87
2023/11/05 04:55:40;;;;;;;3.97;0.60;;;;;;;9.04;97.77;153680.88;4947924;29;20443;-88
2023/11/05 04:58:11;;;;;;;1.70;0.80;;;;;;;9.03;98.43;153678.28;4963246;29;20435;-87
2023/11/05 05:00:40;;;;;;;3.43;1.30;;;;;;;9.04;98.04;153680.88;4961775;29;20438;-88
2023/11/05 05:03:19;;;;;;;2.87;0.60;;;;;;;9.09;98.62;153695.13;4946646;29;20474;-87
2023/11/05 05:05:48;;;;;;;1.73;0.80;;;;;;;9.10;98.50;153696.41;4959910;29;20451;-88
2023/11/05 05:08:19;;;;;;;2.27;0.80;;;;;;;9.09;97.46;153693.81;4945951;29;20443;-88
2023/11/05 05:10:49;;;;;;;2.70;0.60;;;;;;;9.13;98.11;153704.19;4962081;29;20431;-87
2023/11/05 05:13:18;;;;;;;0.87;0.40;;;;;;;9.10;98.99;153697.72;4961545;29;20456;-88
2023/11/05 05:15:48;;;;;;;1.90;0.70;;;;;;;9.01;99.29;153674.44;4959260;29;20455;-88
2023/11/05 05:18:19;;;;;;;1.00;0.40;;;;;;;8.98;99.50;153665.34;4942547;29;20475;-88
2023/11/05 05:20:48;;;;;;;1.10;0.60;;;;;;;8.97;99.10;153664.09;4959001;29;20428;-88
2023/11/05 05:23:18;;;;;;;1.47;0.50;;;;;;;9.00;99.93;153670.56;4956878;29;20474;-88
2023/11/05 05:25:50;;;;;;;1.53;0.40;;;;;;;8.92;100.00;153651.13;4957724;29;20526;-88
2023/11/05 05:28:19;;;;;;;1.67;0.50;;;;;;;8.91;100.00;153647.28;4927390;29;20460;-88
2023/11/05 05:30:48;;;;;;;1.07;0.50;;;;;;;8.90;100.00;153644.66;4942405;29;20447;-88
2023/11/05 05:33:17;;;;;;;1.50;0.50;;;;;;;8.88;100.00;153640.81;4974804;29;20438;-88
2023/11/05 05:35:47;;;;;;;1.87;0.43;;;;;;;8.85;100.00;153631.75;4958739;29;20479;-87
2023/11/05 05:38:22;;;;;;;4.87;0.60;;;;;;;8.83;100.00;153626.59;4959139;29;20475;-87
2023/11/05 05:40:55;;;;;;;1.43;0.40;;;;;;;8.81;100.00;153621.41;4942523;29;20574;-86
2023/11/05 05:43:27;;;;;;;1.40;0.60;;;;;;;8.84;100.00;153629.19;4957302;29;20501;-86
2023/11/05 05:45:59;;;;;;;0.90;0.50;;;;;;;8.83;100.00;153626.59;4957765;29;20446;-87
2023/11/05 05:48:28;;;;;;;1.67;0.50;;;;;;;8.85;100.00;153631.75;4973448;29;20467;-87
2023/11/05 05:50:57;;;;;;;1.10;0.40;;;;;;;8.78;100.00;153614.97;4941764;29;20467;-87
2023/11/05 05:53:30;;;;;;;1.33;0.50;;;;;;;8.76;100.00;153608.50;4957691;29;20458;-87
2023/11/05 05:55:59;;;;;;;0.90;0.50;;;;;;;8.75;100.00;153605.91;4925788;29;20443;-87
2023/11/05 05:58:28;;;;;;;2.43;0.63;;;;;;;8.71;100.00;153595.56;4957169;29;20439;-87
2023/11/05 06:00:57;;;;;;;1.57;0.50;;;;;;;8.72;100.00;153598.13;4957557;29;20477;-87
2023/11/05 06:03:32;;;;;;;2.73;0.60;;;;;;;8.71;100.00;153595.56;4941902;29;20538;-86
2023/11/05 06:06:04;;;;;;;1.00;0.33;;;;;;;8.69;100.00;153590.38;4957513;29;20458;-86
2023/11/05 06:08:45;;;;;;;1.77;0.63;;;;;;;8.67;100.00;153586.50;4926062;29;20490;-86
2023/11/05 06:11:16;;;;;;;1.20;0.43;;;;;;;8.68;100.00;153587.81;4941608;29;20471;-86
2023/11/05 06:13:47;;;;;;;2.23;1.10;;;;;;;8.65;100.00;153581.34;4957662;29;20635;-86
2023/11/05 06:16:18;;;;;;;2.23;0.60;;;;;;;8.64;100.00;153578.75;4956894;29;20624;-87
2023/11/05 06:18:48;;;;;;;1.40;0.60;;;;;;;8.65;100.00;153580.03;4967744;28;20511;-87
2023/11/05 06:21:21;;;;;;;2.07;0.70;;;;;;;8.69;100.00;153590.38;4957659;29;20455;-86
2023/11/05 06:23:57;;;;;;;1.10;0.40;;;;;;;8.72;100.00;153598.13;4957941;29;20955;-87
2023/11/05 06:26:30;;;;;;;1.70;0.90;;;;;;;8.72;100.00;153599.44;4941823;29;20769;-87
2023/11/05 06:29:02;;;;;;;1.27;0.60;;;;;;;8.78;100.00;153613.66;4958068;29;20439;-87
2023/11/05 06:31:36;;;;;;;1.40;0.73;;;;;;;8.78;100.00;153614.97;4957759;29;20530;-87
2023/11/05 06:34:11;;;;;;;1.13;0.50;;;;;;;8.85;100.00;153631.75;4943750;29;20442;-87
2023/11/05 06:36:59;;;;;;;1.37;0.90;;;;;;;8.90;100.00;153644.66;4961222;29;20529;-87
2023/11/05 06:39:31;;;;;;;1.50;0.50;;;;;;;8.94;100.00;153655.03;4954313;29;20522;-87
2023/11/05 06:42:03;;;;;;;0.80;0.50;;;;;;;8.95;100.00;153657.59;4945008;29;20449;-87
2023/11/05 06:44:34;;;;;;;1.77;0.53;;;;;;;8.99;100.00;153667.97;4945184;29;20483;-86
2023/11/05 06:47:05;;;;;;;1.67;0.30;;;;;;;9.02;100.00;153677.03;4976356;29;20451;-86
2023/11/05 06:49:36;;;;;;;1.73;0.80;;;;;;;9.10;100.00;153697.72;4945400;29;20714;-86
2023/11/05 06:52:13;;;;;;;1.10;0.37;;;;;;;9.16;100.00;153711.91;4976759;29;20694;-86
2023/11/05 06:54:56;;;;;;;1.70;1.00;;;;;;;9.13;100.00;153705.44;4962399;29;20483;-87
2023/11/05 06:57:27;;;;;;;1.50;0.30;;;;;;;9.14;100.00;153706.75;4961092;29;20489;-86
2023/11/05 06:59:57;;;;;;;1.50;0.50;;;;;;;9.13;100.00;153704.19;4961045;29;20459;-87
2023/11/05 07:02:28;;;;;;;0.90;0.40;;;;;;;9.09;100.00;153693.81;4977718;29;20467;-87
2023/11/05 07:05:04;;;;;;;0.80;0.40;;;;;;;9.06;100.00;153686.06;4977125;28;20471;-87
2023/11/05 07:07:35;;;;;;;0.80;0.30;;;;;;;9.06;100.00;153686.06;4945040;29;20481;-87
2023/11/05 07:10:17;;;;;;;1.93;0.40;;;;;;;9.14;100.00;153706.75;4960811;29;20455;-86
2023/11/05 07:12:48;;;;;;;1.53;0.40;;;;;;;9.22;100.00;153727.44;4960902;29;20449;-86
2023/11/05 07:15:19;;;;;;;0.70;0.20;;;;;;;9.27;100.00;153739.06;4944938;29;20672;-86
2023/11/05 07:17:57;;;;;;;1.43;0.40;;;;;;;9.25;100.00;153735.22;4960051;29;20483;-87
2023/11/05 07:20:29;;;;;;;1.17;0.33;;;;;;;9.45;100.00;153786.94;4928810;29;20433;-87
2023/11/05 07:23:00;;;;;;;0.80;0.30;;;;;;;9.48;100.00;153793.41;4943374;29;20455;-87
2023/11/05 07:25:33;;;;;;;0.70;0.30;;;;;;;9.63;100.00;153833.53;4958950;29;20816;-87
2023/11/05 07:28:04;;;;;;;3.63;0.70;;;;;;;10.23;100.00;153986.28;4960183;29;20431;-87
2023/11/05 07:30:33;;;;;;;0.90;0.40;;;;;;;11.30;100.00;154260.81;4944352;29;20458;-88
2023/11/05 07:33:07;;;;;;;0.70;0.30;;;;;;;11.89;96.11;154413.75;4960512;29;20435;-88
2023/11/05 07:35:40;;;;;;;1.17;0.37;;;;;;;11.82;94.54;154394.31;4945423;29;20782;-88
2023/11/05 07:38:18;;;;;;;1.20;0.43;;;;;;;11.38;94.96;154282.84;4944144;29;20459;-87
2023/11/05 07:40:51;;;;;;;0.90;0.40;;;;;;;10.92;96.44;154164.97;4960222;29;20462;-87
2023/11/05 07:43:23;;;;;;;0.83;0.30;;;;;;;10.61;97.80;154083.38;4960220;29;20457;-87
2023/11/05 07:45:56;;;;;;;1.17;0.40;;;;;;;10.42;99.33;154034.16;4959367;29;20498;-88
2023/11/05 07:48:34;;;;;;;0.90;0.33;;;;;;;10.33;100.00;154012.16;4960748;29;20459;-86
2023/11/05 07:51:07;;;;;;;0.80;0.40;;;;;;;10.33;100.00;154013.47;4945603;29;20475;-87
2023/11/05 07:53:42;;;;;;;1.00;0.20;;;;;;;10.32;100.00;154009.59;4942653;29;20462;-88
2023/11/05 07:56:40;;;;;;;1.20;0.60;;;;;;;10.33;100.00;154013.47;4960652;29;20482;-87
2023/11/05 07:59:19;;;;;;;2.40;0.70;;;;;;;10.30;100.00;154004.38;4977256;29;20459;-88
2023/11/05 08:02:14;;;;;;;1.00;0.40;;;;;;;10.33;100.00;154013.47;4960609;29;20459;-87
2023/11/05 08:10:24;;;;;;;1.00;0.40;;;;;;;10.54;100.00;154066.53;4919256;29;20533;-89
2023/11/05 08:13:04;;;;;;;1.63;0.40;;;;;;;10.63;100.00;154089.84;4966264;29;20467;-88
2023/11/05 08:15:34;;;;;;;0.90;0.40;;;;;;;10.65;100.00;154095.03;4959272;29;20498;-87
2023/11/05 08:18:08;;;;;;;1.10;0.40;;;;;;;10.73;100.00;154115.75;4945364;29;20485;-87
2023/11/05 08:20:43;;;;;;;0.87;0.30;;;;;;;10.76;100.00;154123.53;4960228;29;20487;-88
2023/11/05 08:23:14;;;;;;;1.20;0.30;;;;;;;10.87;100.00;154150.72;4943077;29;20518;-87
2023/11/05 08:25:50;;;;;;;1.00;0.27;;;;;;;10.85;100.00;154145.53;4976257;29;20563;-87
2023/11/05 08:31:20;;;;;;;1.77;0.30;;;;;;;10.82;100.00;154139.06;4957667;29;20470;-87
2023/11/05 08:34:03;;;;;;;0.90;0.40;;;;;;;10.89;100.00;154155.88;4973965;29;20741;-87
2023/11/05 08:36:33;;;;;;;0.97;0.30;;;;;;;10.90;100.00;154158.50;4959682;29;20455;-88
2023/11/05 08:39:10;;;;;;;0.80;0.37;;;;;;;10.89;100.00;154157.19;4959225;29;20459;-88
2023/11/05 08:41:48;;;;;;;1.60;0.67;;;;;;;10.96;100.00;154175.31;4958820;29;20459;-88
2023/11/05 08:44:23;;;;;;;0.97;0.53;;;;;;;10.98;100.00;154180.53;4943131;29;20502;-88
2023/11/05 08:47:01;;;;;;;1.10;0.40;;;;;;;10.94;100.00;154170.13;4942756;29;20569;-87
2023/11/05 08:49:35;;;;;;;1.93;0.37;;;;;;;10.91;100.00;154162.34;4942924;29;20455;-87
2023/11/05 08:52:20;;;;;;;2.17;0.40;;;;;;;10.96;100.00;154174.06;4959228;29;20529;-87
2023/11/05 08:54:55;;;;;;;3.33;0.30;;;;;;;10.99;100.00;154183.09;4942972;29;20507;-87
2023/11/05 08:57:26;;;;;;;1.47;0.60;;;;;;;10.89;100.00;154157.19;4958051;29;20451;-88
2023/11/05 09:00:11;;;;;;;0.90;0.30;;;;;;;10.82;100.00;154139.06;4958847;29;20435;-86
2023/11/05 09:02:44;;;;;;;0.90;0.30;;;;;;;10.78;100.00;154128.69;4938527;29;20490;-88
2023/11/05 09:05:17;;;;;;;1.13;0.30;;;;;;;10.79;100.00;154131.28;4959549;29;20473;-88
2023/11/05 09:08:00;;;;;;;0.97;0.37;;;;;;;10.81;100.00;154136.47;4959952;29;20518;-88
2023/11/05 09:10:30;;;;;;;0.80;0.20;;;;;;;10.86;100.00;154148.09;4958676;29;20502;-88
2023/11/05 09:13:04;;;;;;;0.70;0.30;;;;;;;10.87;100.00;154152.03;4943130;29;20443;-88
2023/11/05 09:15:41;;;;;;;1.57;0.47;;;;;;;10.94;100.00;154170.13;4974384;29;20447;-88
2023/11/05 09:18:30;;;;;;;1.23;0.30;;;;;;;11.00;100.00;154185.69;4958509;29;20498;-87
2023/11/05 09:21:10;;;;;;;1.13;0.30;;;;;;;11.10;100.00;154208.97;4940286;29;20461;-87
2023/11/05 09:23:39;;;;;;;3.63;0.90;;;;;;;11.10;100.00;154208.97;4958276;29;20465;-88
2023/11/05 09:26:10;;;;;;;0.80;0.30;;;;;;;11.11;100.00;154211.59;4958217;29;20693;-88
2023/11/05 09:28:43;;;;;;;1.63;0.40;;;;;;;11.09;100.00;154206.41;4943356;29;20436;-87
2023/11/05 09:31:14;;;;;;;1.57;0.43;;;;;;;11.12;100.00;154214.19;4942276;29;20456;-87
2023/11/05 09:33:49;;;;;;;0.90;0.30;;;;;;;11.23;99.26;154242.66;4943110;29;20534;-87
2023/11/05 09:36:23;;;;;;;0.90;0.37;;;;;;;11.35;98.53;154273.78;4942025;29;20499;-87
2023/11/05 09:38:56;;;;;;;1.10;0.30;;;;;;;11.45;97.61;154299.69;4958099;29;20466;-88
2023/11/05 09:41:27;;;;;;;2.40;0.50;;;;;;;11.48;99.09;154307.47;4941969;29;20451;-88
2023/11/05 09:43:59;;;;;;;2.60;0.40;;;;;;;11.48;99.96;154307.47;4957595;29;20523;-87
2023/11/05 09:46:36;;;;;;;1.20;0.57;;;;;;;11.52;98.10;154319.09;4950952;29;20486;-87
2023/11/05 09:49:06;;;;;;;1.47;0.20;;;;;;;11.56;99.25;154329.50;4942212;29;20447;-87
2023/11/05 09:51:43;;;;;;;1.10;0.30;;;;;;;11.51;100.00;154316.53;4957671;29;20451;-87
2023/11/05 09:54:18;;;;;;;1.40;0.50;;;;;;;11.42;100.00;154293.19;4957928;29;20720;-87
2023/11/05 09:56:48;;;;;;;1.07;0.40;;;;;;;11.38;100.00;154281.56;4957425;29;20689;-87
2023/11/05 09:59:20;;;;;;;0.90;0.40;;;;;;;11.42;100.00;154291.91;4941833;29;20518;-87
2023/11/05 10:02:12;;;;;;;1.00;0.40;;;;;;;11.45;100.00;154299.69;4973461;29;20435;-87
2023/11/05 10:04:43;;;;;;;0.80;0.30;;;;;;;11.52;100.00;154317.81;4942144;29;20474;-87
2023/11/05 10:07:14;;;;;;;2.80;0.30;;;;;;;11.59;100.00;154335.97;4957291;29;20462;-87
2023/11/05 10:12:54;;;;;;;1.47;0.40;;;;;;;11.69;100.00;154360.63;4956527;29;20442;-87
2023/11/05 10:19:57;;;;;;;1.30;0.70;;;;;;;11.62;100.00;154343.75;4973677;29;20399;-87
2023/11/05 10:22:26;;;;;;;1.40;0.73;;;;;;;11.56;100.00;154328.19;4941326;29;20435;-87
2023/11/05 10:24:55;;;;;;;1.40;0.83;;;;;;;11.54;100.00;154323.03;4956039;29;20577;-87
2023/11/05 10:27:30;;;;;;;0.90;0.30;;;;;;;11.53;100.00;154320.41;4940835;29;20459;-87
2023/11/05 10:30:01;;;;;;;1.00;0.30;;;;;;;11.52;100.00;154317.81;4941592;29;20475;-87
2023/11/05 10:32:40;;;;;;;1.40;0.37;;;;;;;11.51;100.00;154315.25;4973473;29;20447;-87
2023/11/05 10:35:14;;;;;;;2.27;0.77;;;;;;;11.49;100.00;154310.06;4941037;29;20458;-87
2023/11/05 10:37:47;;;;;;;0.90;0.30;;;;;;;11.51;100.00;154315.25;4956466;29;20459;-87
2023/11/05 10:40:19;;;;;;;1.40;0.77;;;;;;;11.50;100.00;154312.63;4956019;29;20518;-87
2023/11/05 10:42:49;;;;;;;2.40;0.60;;;;;;;11.49;100.00;154310.06;4940970;29;20467;-86
2023/11/05 10:45:21;;;;;;;1.17;0.67;;;;;;;11.44;100.00;154297.06;4956144;29;20688;-87
2023/11/05 10:47:54;;;;;;;0.80;0.30;;;;;;;11.40;100.00;154286.72;4941198;29;20475;-87
2023/11/05 10:50:27;;;;;;;1.50;0.77;;;;;;;11.36;100.00;154276.34;4972066;29;20526;-87
2023/11/05 10:53:00;;;;;;;1.10;0.40;;;;;;;11.37;100.00;154278.94;4940738;29;20439;-86
2023/11/05 10:55:35;;;;;;;1.20;0.40;;;;;;;11.34;100.00;154272.47;4955558;29;20466;-85
2023/11/05 10:58:06;;;;;;;0.70;0.20;;;;;;;11.33;100.00;154269.84;4940345;29;20450;-86
2023/11/05 11:00:51;;;;;;;0.97;0.40;;;;;;;11.32;100.00;154266.00;4940315;29;20490;-87
2023/11/05 11:03:23;;;;;;;1.00;0.40;;;;;;;11.28;100.00;154256.91;4940845;29;20432;-86
2023/11/05 11:06:15;;;;;;;5.63;0.60;;;;;;;11.26;100.00;154251.75;4956490;29;20503;-85
2023/11/05 11:08:59;;;;;;;1.00;0.43;;;;;;;11.26;100.00;154250.44;4970135;29;20457;-86
2023/11/05 11:11:28;;;;;;;1.10;0.30;;;;;;;11.29;100.00;154258.22;4940464;29;20459;-86
2023/11/05 11:13:58;;;;;;;0.80;0.37;;;;;;;11.28;100.00;154256.91;4940788;29;20447;-86
2023/11/05 11:16:31;;;;;;;1.57;0.33;;;;;;;11.29;100.00;154259.53;4956691;29;20531;-86
2023/11/05 11:19:12;;;;;;;0.80;0.30;;;;;;;11.30;100.00;154262.13;4956113;29;20450;-86
2023/11/05 11:21:44;;;;;;;0.80;0.33;;;;;;;11.29;100.00;154258.22;4942981;29;20436;-86
2023/11/05 11:24:36;;;;;;;1.03;0.50;;;;;;;11.26;100.00;154250.44;4975565;29;20459;-86
2023/11/05 11:27:07;;;;;;;0.90;0.50;;;;;;;11.26;100.00;154250.44;4944006;29;20454;-86
2023/11/05 11:29:37;;;;;;;1.10;0.43;;;;;;;11.28;100.00;154255.66;4960387;29;20541;-85
2023/11/05 11:32:09;;;;;;;0.90;0.40;;;;;;;11.25;100.00;154247.88;4975777;29;20456;-85
2023/11/05 11:34:37;;;;;;;1.00;0.40;;;;;;;11.23;100.00;154242.66;4942952;29;20519;-86
2023/11/05 11:37:07;;;;;;;0.80;0.40;;;;;;;11.23;100.00;154242.66;4959432;29;20440;-86
2023/11/05 11:39:38;;;;;;;0.80;0.40;;;;;;;11.26;100.00;154250.44;4958970;29;20451;-86
2023/11/05 11:42:09;;;;;;;1.63;0.40;;;;;;;11.27;100.00;154253.03;4958845;29;20469;-85
2023/11/05 11:44:38;;;;;;;0.90;0.40;;;;;;;11.31;100.00;154263.38;4959046;29;20444;-86
2023/11/05 11:47:07;;;;;;;1.27;0.37;;;;;;;11.35;100.00;154273.78;4958603;29;20534;-86
2023/11/05 11:49:35;;;;;;;1.10;0.40;;;;;;;11.39;100.00;154285.41;4942422;29;20708;-87
2023/11/05 11:52:04;;;;;;;0.90;0.30;;;;;;;11.44;100.00;154297.06;4958867;29;20498;-86
2023/11/05 11:54:34;;;;;;;2.20;0.40;;;;;;;11.45;100.00;154299.69;4958553;29;20479;-86
2023/11/05 11:57:05;;;;;;;1.03;0.40;;;;;;;11.48;100.00;154307.47;4942268;29;20431;-87
2023/11/05 11:59:33;;;;;;;0.80;0.40;;;;;;;11.51;100.00;154316.53;4958593;29;20483;-87
2023/11/05 12:02:04;;;;;;;2.60;1.30;;;;;;;11.51;100.00;154316.53;4957872;29;20440;-85